Time;durP1;ratioP1;P1;durP2;ratioP2;P2;SDS_P1;SDS_P2;PMS_P1;PMS_P2;Temp;Humidity;BMP_temperature;BMP_pressure;BME280_temperature;BME280_humidity;BME280_pressure;Samples;Min_cycle;Max_cycle;Signal;HPM_P1;HPM_P2
2022/12/24 00:00:12;;;;;;;15.18;4.80;;;11.40;87.70;;;;;;5048988;28;20417;-70
2022/12/24 00:02:39;;;;;;;16.27;5.03;;;11.40;87.90;;;;;;5045564;28;20417;-70
2022/12/24 00:05:07;;;;;;;11.05;4.18;;;11.40;88.20;;;;;;5045242;28;20528;-71
2022/12/24 00:07:33;;;;;;;12.18;4.25;;;11.40;87.50;;;;;;5044069;28;20784;-71
2022/12/24 00:10:01;;;;;;;13.30;4.30;;;11.40;87.80;;;;;;5051096;28;20964;-70
2022/12/24 00:12:28;;;;;;;12.23;4.00;;;11.40;87.40;;;;;;5054958;28;20465;-70
2022/12/24 00:14:55;;;;;;;14.73;4.60;;;11.40;87.30;;;;;;5055120;28;20417;-70
2022/12/24 00:17:21;;;;;;;11.90;4.10;;;11.30;88.00;;;;;;5066055;28;20514;-70
2022/12/24 00:19:48;;;;;;;14.05;4.20;;;11.20;88.50;;;;;;5065554;28;20876;-71
2022/12/24 00:22:15;;;;;;;13.95;4.20;;;11.10;89.10;;;;;;5061909;28;20411;-70
2022/12/24 00:24:42;;;;;;;15.30;4.50;;;11.10;89.60;;;;;;5053823;28;20417;-71
2022/12/24 00:27:10;;;;;;;12.75;4.20;;;11.10;90.00;;;;;;5054705;28;20503;-71
2022/12/24 00:29:37;;;;;;;12.85;3.88;;;11.00;90.30;;;;;;5048420;28;20872;-71
2022/12/24 00:32:06;;;;;;;11.57;4.00;;;11.10;90.10;;;;;;5045180;28;20436;-70
2022/12/24 00:34:33;;;;;;;14.27;5.78;;;11.10;90.10;;;;;;5045030;28;20420;-70
2022/12/24 00:37:00;;;;;;;14.47;4.70;;;11.10;90.10;;;;;;5045383;28;20425;-71
2022/12/24 00:39:27;;;;;;;12.20;3.90;;;11.10;90.00;;;;;;5052286;28;20463;-71
2022/12/24 00:41:53;;;;;;;14.65;4.45;;;11.20;90.10;;;;;;5063100;28;20522;-70
2022/12/24 00:44:22;;;;;;;11.80;3.78;;;11.20;90.10;;;;;;5065375;28;20812;-71
2022/12/24 00:46:48;;;;;;;11.60;3.73;;;11.20;90.80;;;;;;5065889;28;20462;-71
2022/12/24 00:49:15;;;;;;;13.83;4.20;;;11.10;91.70;;;;;;5056994;28;20421;-71
2022/12/24 00:51:42;;;;;;;15.30;4.20;;;11.00;91.80;;;;;;5045413;28;20425;-70
2022/12/24 00:54:09;;;;;;;12.35;4.10;;;11.10;92.00;;;;;;5052282;28;20428;-70
2022/12/24 00:56:35;;;;;;;11.75;4.40;;;11.10;92.20;;;;;;5060024;28;20412;-71
2022/12/24 00:59:02;;;;;;;17.23;4.05;;;11.10;92.20;;;;;;5061232;28;20410;-70
2022/12/24 01:01:30;;;;;;;16.52;5.15;;;11.10;92.00;;;;;;5050800;28;20408;-70
2022/12/24 01:06:38;;;;;;;14.65;4.05;;;11.10;91.90;;;;;;5044959;28;20848;-71
2022/12/24 01:09:04;;;;;;;15.45;4.53;;;11.20;91.70;;;;;;5052724;28;20431;-72
2022/12/24 01:11:31;;;;;;;12.88;3.58;;;11.20;91.50;;;;;;5054037;28;20955;-70
2022/12/24 01:13:58;;;;;;;11.68;4.28;;;11.20;91.30;;;;;;5053307;28;20620;-71
2022/12/24 01:16:25;;;;;;;11.10;4.28;;;11.30;91.10;;;;;;5052687;28;20906;-70
2022/12/24 01:18:53;;;;;;;9.98;4.30;;;11.30;90.90;;;;;;5051126;28;20868;-71
2022/12/24 01:21:20;;;;;;;13.40;3.70;;;11.30;90.70;;;;;;5061575;28;20407;-70
2022/12/24 01:23:47;;;;;;;12.40;3.63;;;11.30;90.80;;;;;;5061131;28;20427;-70
2022/12/24 01:26:13;;;;;;;13.40;3.70;;;11.30;90.70;;;;;;5050514;28;20421;-70
2022/12/24 01:28:41;;;;;;;12.20;3.70;;;11.30;90.90;;;;;;5049507;28;20922;-71
2022/12/24 01:31:11;;;;;;;14.90;5.10;;;11.30;90.90;;;;;;5047986;28;20425;-70
2022/12/24 01:33:38;;;;;;;13.48;3.75;;;11.30;90.90;;;;;;5047618;28;20412;-70
2022/12/24 01:36:06;;;;;;;11.48;3.60;;;11.30;90.90;;;;;;5059324;28;20444;-70
2022/12/24 01:38:33;;;;;;;13.80;4.47;;;11.40;90.80;;;;;;5068860;28;20442;-70
2022/12/24 01:43:44;;;;;;;10.80;4.60;;;11.30;91.10;;;;;;5063545;28;20482;-71
2022/12/24 01:46:16;;;;;;;13.40;4.20;;;11.20;91.20;;;;;;5048616;28;20424;-70
2022/12/24 01:48:45;;;;;;;13.23;3.97;;;11.30;91.30;;;;;;5048049;28;20432;-70
2022/12/24 01:51:21;;;;;;;12.43;4.43;;;11.20;91.40;;;;;;5050082;28;20451;-71
2022/12/24 01:53:51;;;;;;;11.10;4.45;;;11.10;91.60;;;;;;5055686;28;20436;-71
2022/12/24 01:56:19;;;;;;;13.65;4.80;;;11.10;91.80;;;;;;5060266;28;20418;-70
2022/12/24 01:58:50;;;;;;;11.27;4.00;;;11.10;91.70;;;;;;5064181;28;20436;-70
2022/12/24 02:01:17;;;;;;;10.35;3.80;;;11.10;91.70;;;;;;5049063;28;20421;-70
2022/12/24 02:03:44;;;;;;;12.65;4.57;;;11.00;92.10;;;;;;5048767;28;20772;-70
2022/12/24 02:06:15;;;;;;;11.90;3.80;;;10.90;92.10;;;;;;5049938;28;20964;-71
2022/12/24 02:08:42;;;;;;;12.60;4.38;;;10.90;92.20;;;;;;5048286;28;20526;-70
2022/12/24 02:11:13;;;;;;;12.23;3.75;;;10.80;92.50;;;;;;5058938;28;20420;-71
2022/12/24 02:13:41;;;;;;;10.60;3.72;;;10.80;92.40;;;;;;5067075;28;21045;-70
2022/12/24 02:16:16;;;;;;;9.70;3.33;;;10.80;92.60;;;;;;5068351;28;20434;-70
2022/12/24 02:18:49;;;;;;;12.85;3.72;;;10.80;92.50;;;;;;5073340;28;20420;-71
2022/12/24 02:21:51;;;;;;;11.85;3.72;;;10.80;92.50;;;;;;5069936;28;20427;-70
2022/12/24 02:24:48;;;;;;;11.53;3.50;;;10.80;92.50;;;;;;5053501;28;20495;-70
2022/12/24 02:27:28;;;;;;;10.77;3.90;;;10.80;92.40;;;;;;5059953;28;20415;-70
2022/12/24 02:30:07;;;;;;;10.85;3.20;;;10.70;92.50;;;;;;5052976;28;20409;-71
2022/12/24 02:32:43;;;;;;;14.00;5.13;;;10.70;92.70;;;;;;5046707;28;20610;-70
2022/12/24 02:35:14;;;;;;;15.57;4.40;;;10.70;92.60;;;;;;5046385;28;20752;-71
2022/12/24 02:37:45;;;;;;;10.63;3.80;;;10.70;92.70;;;;;;5060713;28;20428;-71
2022/12/24 02:40:17;;;;;;;11.70;4.40;;;10.60;92.90;;;;;;5060413;28;20440;-70
2022/12/24 02:42:48;;;;;;;11.80;4.03;;;10.70;93.10;;;;;;5068252;28;20479;-70
2022/12/24 02:45:18;;;;;;;11.95;3.90;;;10.60;93.10;;;;;;5068583;28;20411;-70
2022/12/24 02:47:46;;;;;;;15.50;4.10;;;10.70;93.10;;;;;;5067223;28;20510;-70
2022/12/24 02:50:15;;;;;;;11.68;4.40;;;10.70;93.00;;;;;;5066466;28;20993;-70
2022/12/24 02:52:44;;;;;;;9.63;3.60;;;10.80;92.90;;;;;;5059802;28;20432;-70
2022/12/24 02:55:14;;;;;;;14.80;4.32;;;10.90;92.90;;;;;;5057749;28;20438;-70
2022/12/24 02:58:02;;;;;;;11.90;4.03;;;10.90;92.90;;;;;;5066715;28;20423;-70
2022/12/24 03:00:42;;;;;;;13.75;3.72;;;10.90;92.80;;;;;;5050443;28;20442;-70
2022/12/24 03:03:29;;;;;;;12.35;4.25;;;10.90;93.00;;;;;;5058612;28;20431;-70
2022/12/24 03:06:04;;;;;;;12.25;4.72;;;10.90;93.00;;;;;;5058102;28;20440;-70
2022/12/24 03:08:38;;;;;;;14.17;4.40;;;10.90;93.20;;;;;;5052570;28;21003;-70
2022/12/24 03:11:09;;;;;;;11.88;3.55;;;11.00;93.20;;;;;;5058173;28;20428;-71
2022/12/24 03:13:36;;;;;;;9.25;3.15;;;11.00;93.10;;;;;;5066133;28;20571;-72
2022/12/24 03:16:09;;;;;;;10.80;3.78;;;11.00;93.10;;;;;;5054101;28;20512;-70
2022/12/24 03:18:40;;;;;;;11.40;3.90;;;11.00;93.30;;;;;;5058231;28;20416;-70
2022/12/24 03:21:10;;;;;;;13.45;4.05;;;11.00;93.30;;;;;;5066428;28;20471;-70
2022/12/24 03:23:37;;;;;;;11.50;3.90;;;11.00;93.50;;;;;;5057072;28;20452;-70
2022/12/24 03:26:07;;;;;;;12.20;4.10;;;10.90;93.50;;;;;;5054709;28;20410;-70
2022/12/24 03:28:34;;;;;;;10.30;3.50;;;10.90;93.60;;;;;;5046637;28;20776;-70
2022/12/24 03:31:03;;;;;;;9.23;3.10;;;11.00;93.70;;;;;;5047347;28;20432;-72
2022/12/24 03:33:31;;;;;;;9.63;3.80;;;10.90;93.90;;;;;;5073041;28;20512;-70
2022/12/24 03:35:58;;;;;;;12.23;3.72;;;10.90;94.20;;;;;;5069375;28;20406;-70
2022/12/24 03:38:24;;;;;;;9.10;3.45;;;10.90;96.10;;;;;;5059450;28;20429;-71
2022/12/24 03:40:51;;;;;;;8.73;2.67;;;10.70;97.60;;;;;;5057773;28;20421;-71
2022/12/24 03:43:18;;;;;;;8.45;2.70;;;10.50;98.20;;;;;;5069955;28;20411;-71
2022/12/24 03:45:45;;;;;;;6.43;2.85;;;10.30;99.20;;;;;;5066521;28;20407;-71
2022/12/24 03:48:11;;;;;;;9.63;3.40;;;10.20;99.80;;;;;;5055985;28;20561;-72
2022/12/24 03:50:40;;;;;;;8.57;3.00;;;10.10;99.90;;;;;;5045515;28;20432;-71
2022/12/24 03:53:06;;;;;;;7.40;2.65;;;10.00;99.90;;;;;;5045345;28;20431;-71
2022/12/24 03:55:33;;;;;;;9.23;2.95;;;10.00;99.90;;;;;;5051585;28;20512;-72
2022/12/24 03:58:00;;;;;;;7.60;3.08;;;10.00;99.90;;;;;;5057511;28;20411;-72
2022/12/24 04:00:26;;;;;;;7.70;2.40;;;9.90;99.90;;;;;;5046723;28;20469;-72
2022/12/24 04:02:53;;;;;;;8.27;2.60;;;9.80;99.90;;;;;;5045808;28;20448;-72
2022/12/24 04:05:21;;;;;;;5.20;2.50;;;9.80;99.90;;;;;;5047851;28;20919;-72
2022/12/24 04:07:49;;;;;;;5.82;2.20;;;9.70;99.90;;;;;;5057058;28;20423;-72
2022/12/24 04:10:16;;;;;;;8.68;2.60;;;9.70;99.90;;;;;;5057311;28;20437;-72
2022/12/24 04:12:43;;;;;;;5.13;2.20;;;9.60;99.90;;;;;;5061573;28;20431;-72
2022/12/24 04:15:10;;;;;;;6.22;2.17;;;9.60;99.90;;;;;;5057944;28;20417;-72
2022/12/24 04:17:37;;;;;;;6.03;2.08;;;9.50;99.90;;;;;;5045531;28;20413;-72
2022/12/24 04:20:05;;;;;;;6.55;2.30;;;9.50;99.90;;;;;;5046559;28;20461;-72
2022/12/24 04:22:32;;;;;;;5.35;2.10;;;9.50;99.90;;;;;;5056637;28;21147;-72
2022/12/24 04:25:00;;;;;;;7.00;2.93;;;9.40;99.90;;;;;;5060754;28;20502;-71
2022/12/24 04:27:26;;;;;;;4.97;1.77;;;9.40;99.90;;;;;;5059212;28;20424;-72
2022/12/24 04:29:53;;;;;;;5.97;2.10;;;9.40;99.90;;;;;;5051135;28;20440;-72
2022/12/24 04:32:20;;;;;;;4.43;1.70;;;9.40;99.90;;;;;;5045045;28;20433;-72
2022/12/24 04:34:46;;;;;;;4.40;1.63;;;9.40;99.90;;;;;;5045918;28;20500;-72
2022/12/24 04:37:13;;;;;;;5.85;1.70;;;9.40;99.90;;;;;;5045008;28;20764;-72
2022/12/24 04:39:40;;;;;;;7.53;2.65;;;9.40;99.90;;;;;;5052070;28;20440;-72
2022/12/24 04:42:08;;;;;;;5.20;1.83;;;9.30;99.90;;;;;;5056312;28;21112;-72
2022/12/24 04:44:35;;;;;;;6.82;2.35;;;9.30;99.90;;;;;;5065461;28;20415;-73
2022/12/24 04:47:01;;;;;;;6.88;2.70;;;9.20;99.90;;;;;;5065610;28;20416;-72
2022/12/24 04:49:28;;;;;;;6.47;2.30;;;9.20;99.90;;;;;;5067503;28;20423;-71
2022/12/24 04:51:55;;;;;;;5.65;2.30;;;9.20;99.90;;;;;;5068746;28;20424;-72
2022/12/24 04:54:21;;;;;;;7.60;2.30;;;9.20;99.90;;;;;;5065502;28;20431;-72
2022/12/24 04:56:48;;;;;;;4.68;2.10;;;9.20;99.90;;;;;;5060836;28;20426;-72
2022/12/24 04:59:16;;;;;;;8.07;2.00;;;9.20;99.90;;;;;;5059936;28;20413;-72
2022/12/24 05:01:43;;;;;;;4.97;2.35;;;9.20;99.90;;;;;;5049049;28;20417;-72
2022/12/24 05:04:10;;;;;;;5.57;2.05;;;9.20;99.90;;;;;;5055896;28;20429;-72
2022/12/24 05:06:37;;;;;;;7.72;2.50;;;9.20;99.90;;;;;;5063966;28;20415;-71
2022/12/24 05:09:04;;;;;;;5.85;2.38;;;9.10;99.90;;;;;;5063890;28;20443;-72
2022/12/24 05:11:31;;;;;;;5.45;2.40;;;9.10;99.90;;;;;;5067622;28;20438;-72
2022/12/24 05:13:58;;;;;;;6.38;2.72;;;9.10;99.90;;;;;;5068518;28;20435;-72
2022/12/24 05:16:26;;;;;;;5.63;2.30;;;9.10;99.90;;;;;;5048476;28;20429;-71
2022/12/24 05:18:53;;;;;;;6.10;2.30;;;9.10;99.90;;;;;;5048660;28;20917;-71
2022/12/24 05:21:22;;;;;;;7.40;2.40;;;9.10;99.90;;;;;;5048345;28;20413;-71
2022/12/24 05:26:37;;;;;;;4.22;2.17;;;9.10;99.90;;;;;;5078934;28;20422;-77
2022/12/24 05:29:06;;;;;;;5.90;2.30;;;9.10;99.90;;;;;;5080922;28;20481;-72
2022/12/24 05:31:35;;;;;;;5.30;1.90;;;9.10;99.90;;;;;;5060395;28;20413;-71
2022/12/24 05:34:02;;;;;;;6.00;2.10;;;9.10;99.90;;;;;;5048595;28;20426;-71
2022/12/24 05:36:29;;;;;;;4.90;2.30;;;9.10;99.90;;;;;;5047996;28;20548;-71
2022/12/24 05:38:55;;;;;;;8.07;2.80;;;9.20;99.90;;;;;;5054029;28;20468;-71
2022/12/24 05:41:22;;;;;;;8.38;2.80;;;9.20;99.90;;;;;;5060621;28;20419;-71
2022/12/24 05:43:49;;;;;;;7.55;2.60;;;9.30;99.90;;;;;;5027773;28;20414;-72
2022/12/24 05:46:18;;;;;;;6.50;2.88;;;9.30;99.90;;;;;;5028372;28;20422;-71
2022/12/24 05:48:46;;;;;;;6.50;2.72;;;9.30;99.90;;;;;;5027811;28;20419;-71
2022/12/24 05:51:14;;;;;;;7.38;3.05;;;9.20;99.90;;;;;;5027514;28;20445;-71
2022/12/24 05:53:41;;;;;;;8.30;3.50;;;9.20;99.90;;;;;;5043925;28;20431;-71
2022/12/24 05:56:11;;;;;;;9.10;3.90;;;9.20;99.90;;;;;;5058931;28;20435;-71
2022/12/24 05:58:38;;;;;;;8.88;4.10;;;9.20;99.90;;;;;;5067208;28;20454;-71
2022/12/24 06:01:05;;;;;;;7.05;3.30;;;9.20;99.90;;;;;;5067408;28;20884;-71
2022/12/24 06:03:33;;;;;;;11.88;3.65;;;9.20;99.90;;;;;;5066901;28;20482;-71
2022/12/24 06:06:03;;;;;;;8.43;3.13;;;9.20;99.90;;;;;;5051988;28;20436;-72
2022/12/24 06:08:31;;;;;;;10.40;4.57;;;9.20;99.90;;;;;;5045108;28;20927;-72
2022/12/24 06:10:59;;;;;;;7.10;3.45;;;9.30;99.90;;;;;;5052414;28;20440;-71
2022/12/24 06:13:26;;;;;;;12.50;4.20;;;9.30;99.90;;;;;;5041045;28;20429;-71
2022/12/24 06:15:54;;;;;;;9.65;3.38;;;9.20;99.90;;;;;;5041326;28;20440;-72
2022/12/24 06:18:21;;;;;;;12.50;3.90;;;9.20;99.90;;;;;;5046407;28;20455;-71
2022/12/24 06:20:50;;;;;;;9.30;4.10;;;9.20;99.90;;;;;;5039813;28;20770;-71
2022/12/24 06:23:19;;;;;;;10.15;4.22;;;9.20;99.90;;;;;;5046920;28;20427;-71
2022/12/24 06:25:46;;;;;;;10.20;4.00;;;9.20;99.90;;;;;;5072246;22;20437;-66
2022/12/24 06:28:13;;;;;;;9.88;4.43;;;9.20;99.90;;;;;;5044057;28;20838;-67
2022/12/24 06:30:40;;;;;;;10.07;4.18;;;9.30;99.90;;;;;;5048907;28;20441;-68
2022/12/24 06:33:07;;;;;;;13.27;4.70;;;9.30;99.90;;;;;;5048469;28;20429;-67
2022/12/24 06:35:34;;;;;;;9.93;4.15;;;9.30;99.90;;;;;;5048826;28;20417;-67
2022/12/24 06:38:00;;;;;;;12.25;4.40;;;9.40;99.90;;;;;;5046958;28;20456;-67
2022/12/24 06:40:29;;;;;;;9.32;4.15;;;9.40;99.90;;;;;;5042894;28;20419;-67
2022/12/24 06:42:55;;;;;;;9.50;4.88;;;9.40;99.90;;;;;;5047150;28;20413;-67
2022/12/24 06:45:22;;;;;;;12.63;4.68;;;9.50;99.90;;;;;;5048712;28;20416;-67
2022/12/24 06:47:49;;;;;;;10.48;4.22;;;9.50;99.90;;;;;;5048477;28;20779;-67
2022/12/24 06:50:16;;;;;;;10.00;4.35;;;9.50;99.90;;;;;;5048300;28;20429;-69
2022/12/24 06:52:43;;;;;;;12.07;5.28;;;9.60;99.90;;;;;;5047247;28;20825;-67
2022/12/24 06:55:10;;;;;;;11.13;4.20;;;9.50;99.90;;;;;;5036891;28;20423;-68
2022/12/24 06:57:38;;;;;;;11.93;4.90;;;9.50;99.90;;;;;;5047408;28;20497;-67
2022/12/24 07:00:06;;;;;;;11.45;4.78;;;9.50;99.90;;;;;;5048437;28;20512;-68
2022/12/24 07:02:33;;;;;;;12.23;4.53;;;9.50;99.90;;;;;;5047819;28;20409;-68
2022/12/24 07:05:00;;;;;;;15.55;5.18;;;9.50;99.90;;;;;;5041560;28;20892;-68
2022/12/24 07:07:26;;;;;;;12.23;5.45;;;9.50;99.90;;;;;;5047903;28;20456;-68
2022/12/24 07:09:53;;;;;;;14.77;4.40;;;9.50;99.90;;;;;;5043303;28;20417;-68
2022/12/24 07:12:20;;;;;;;11.07;4.10;;;9.50;99.90;;;;;;5035036;28;20799;-68
2022/12/24 07:14:48;;;;;;;10.50;4.53;;;9.60;99.90;;;;;;5048359;28;20874;-68
2022/12/24 07:17:15;;;;;;;13.10;5.50;;;9.60;99.90;;;;;;5048166;28;20803;-68
2022/12/24 07:19:41;;;;;;;12.75;5.00;;;9.60;99.90;;;;;;5048381;28;20444;-68
2022/12/24 07:22:08;;;;;;;14.73;4.85;;;9.60;99.90;;;;;;5047441;28;21135;-68
2022/12/24 07:24:35;;;;;;;13.45;5.05;;;9.60;99.90;;;;;;5045865;28;20425;-68
2022/12/24 07:27:02;;;;;;;12.37;5.23;;;9.60;99.90;;;;;;5047618;28;20418;-68
2022/12/24 07:29:28;;;;;;;16.73;5.10;;;9.60;99.90;;;;;;5047844;28;20413;-68
2022/12/24 07:31:56;;;;;;;12.68;4.68;;;9.60;99.90;;;;;;5047675;28;20413;-67
2022/12/24 07:34:23;;;;;;;14.68;5.30;;;9.70;99.90;;;;;;5047480;28;20452;-68
2022/12/24 07:36:50;;;;;;;10.00;4.50;;;9.70;99.90;;;;;;5047206;28;20428;-68
2022/12/24 07:39:16;;;;;;;13.93;5.18;;;9.70;99.90;;;;;;5042973;28;20889;-68
2022/12/24 07:41:43;;;;;;;11.57;4.80;;;9.80;99.90;;;;;;5046497;28;20421;-68
2022/12/24 07:44:12;;;;;;;12.95;4.70;;;9.80;99.90;;;;;;5047245;28;20764;-67
2022/12/24 07:46:38;;;;;;;12.63;4.88;;;9.90;99.90;;;;;;5046816;28;20511;-68
2022/12/24 07:49:07;;;;;;;16.33;4.70;;;9.90;99.90;;;;;;5036781;28;20422;-67
2022/12/24 07:51:33;;;;;;;14.73;4.68;;;9.90;99.90;;;;;;5046630;28;20417;-68
2022/12/24 07:54:00;;;;;;;13.10;4.30;;;10.00;99.90;;;;;;5045728;28;20961;-68
2022/12/24 07:56:27;;;;;;;16.77;6.13;;;10.00;99.90;;;;;;5041922;28;20440;-68
2022/12/24 07:58:53;;;;;;;13.60;5.00;;;10.00;99.90;;;;;;5047607;28;20429;-68
2022/12/24 08:01:20;;;;;;;15.97;5.73;;;10.00;99.90;;;;;;5047272;28;20427;-68
2022/12/24 08:03:47;;;;;;;12.73;5.00;;;10.00;99.90;;;;;;5047085;28;20416;-66
2022/12/24 08:06:15;;;;;;;13.90;5.38;;;10.00;99.90;;;;;;5036164;28;21069;-67
2022/12/24 08:08:42;;;;;;;16.77;5.28;;;10.00;99.90;;;;;;5040550;28;20429;-67
2022/12/24 08:11:08;;;;;;;13.10;5.30;;;10.00;99.90;;;;;;5034860;28;20422;-66
2022/12/24 08:13:35;;;;;;;14.43;4.75;;;10.00;99.90;;;;;;5049091;28;20432;-67
2022/12/24 08:16:02;;;;;;;14.00;5.32;;;10.10;99.90;;;;;;5051150;28;20409;-67
2022/12/24 08:18:28;;;;;;;15.07;5.00;;;10.20;99.90;;;;;;5050002;28;20925;-67
2022/12/24 08:20:55;;;;;;;12.73;4.80;;;10.30;99.70;;;;;;5038593;28;20423;-66
2022/12/24 08:23:23;;;;;;;14.50;5.50;;;10.40;99.30;;;;;;5045832;28;20440;-67
2022/12/24 08:25:50;;;;;;;13.60;5.47;;;10.40;98.90;;;;;;5047115;28;20783;-66
2022/12/24 08:28:19;;;;;;;11.13;4.53;;;10.40;99.10;;;;;;5051768;28;20421;-66
2022/12/24 08:30:48;;;;;;;12.50;4.35;;;10.40;99.20;;;;;;5051582;28;20421;-66
2022/12/24 08:33:15;;;;;;;14.52;4.65;;;10.50;98.80;;;;;;5050406;28;20429;-65
2022/12/24 08:35:47;;;;;;;11.93;5.03;;;10.50;98.80;;;;;;5041405;28;20419;-66
2022/12/24 08:38:15;;;;;;;13.52;4.50;;;10.50;98.90;;;;;;5049634;28;20433;-66
2022/12/24 08:40:43;;;;;;;15.85;5.00;;;10.60;98.60;;;;;;5051532;28;20420;-68
2022/12/24 08:43:10;;;;;;;14.63;6.87;;;10.60;98.70;;;;;;5051026;28;20452;-66
2022/12/24 08:45:39;;;;;;;13.65;4.50;;;10.70;98.20;;;;;;5050990;28;20492;-66
2022/12/24 08:48:06;;;;;;;16.30;5.68;;;10.70;97.70;;;;;;5047552;28;20440;-69
2022/12/24 08:50:33;;;;;;;12.50;4.70;;;10.70;97.80;;;;;;5041455;28;20426;-66
2022/12/24 08:53:00;;;;;;;16.05;5.18;;;10.70;97.50;;;;;;5047780;28;20425;-66
2022/12/24 08:55:26;;;;;;;14.63;5.50;;;10.70;97.50;;;;;;5034584;28;20430;-67
2022/12/24 08:57:54;;;;;;;11.82;4.63;;;10.80;97.80;;;;;;5039998;28;20420;-69
2022/12/24 09:00:22;;;;;;;16.20;5.30;;;10.80;97.70;;;;;;5050713;28;20424;-68
2022/12/24 09:02:48;;;;;;;15.15;4.30;;;10.70;97.70;;;;;;5052967;28;20413;-68
2022/12/24 09:05:15;;;;;;;14.02;4.55;;;10.70;97.70;;;;;;5057032;28;20437;-68
2022/12/24 09:07:42;;;;;;;13.35;4.60;;;10.80;97.80;;;;;;5049336;28;20437;-68
2022/12/24 09:10:10;;;;;;;17.88;5.60;;;10.70;97.60;;;;;;5047217;28;20423;-68
2022/12/24 09:12:37;;;;;;;14.35;4.78;;;10.70;97.80;;;;;;5050407;28;20428;-67
2022/12/24 09:15:07;;;;;;;12.60;4.60;;;10.70;97.80;;;;;;5050032;28;21024;-67
2022/12/24 09:17:34;;;;;;;12.73;4.47;;;10.70;97.80;;;;;;5052410;28;20475;-67
2022/12/24 09:20:01;;;;;;;14.68;5.05;;;10.70;97.80;;;;;;5047583;28;20849;-67
2022/12/24 09:22:28;;;;;;;15.63;5.15;;;10.70;97.90;;;;;;5044118;28;20442;-66
2022/12/24 09:24:54;;;;;;;13.20;5.20;;;10.70;98.00;;;;;;5044118;28;20432;-66
2022/12/24 09:27:21;;;;;;;15.20;5.00;;;10.70;98.00;;;;;;5034268;28;20422;-66
2022/12/24 09:29:48;;;;;;;15.20;4.90;;;10.70;98.20;;;;;;5044962;28;20979;-67
2022/12/24 09:32:16;;;;;;;13.02;4.70;;;10.60;98.50;;;;;;5050042;28;20409;-68
2022/12/24 09:34:43;;;;;;;13.10;5.07;;;10.60;98.50;;;;;;5049268;28;20440;-66
2022/12/24 09:37:10;;;;;;;15.00;4.93;;;10.70;98.30;;;;;;5049636;28;20930;-67
2022/12/24 09:39:36;;;;;;;13.32;4.60;;;10.70;97.80;;;;;;5036168;28;20445;-66
2022/12/24 09:42:13;;;;;;;13.73;4.95;;;10.80;97.50;;;;;;5047183;28;20436;-67
2022/12/24 09:44:45;;;;;;;15.07;5.10;;;10.80;97.50;;;;;;5047007;28;20416;-66
2022/12/24 09:47:20;;;;;;;17.93;5.70;;;10.80;97.50;;;;;;5050410;28;20429;-67
2022/12/24 09:49:52;;;;;;;14.45;5.20;;;10.80;97.70;;;;;;5048552;28;20440;-67
2022/12/24 09:52:27;;;;;;;16.88;4.63;;;10.80;97.30;;;;;;5035645;28;20439;-67
2022/12/24 09:55:01;;;;;;;15.20;5.40;;;10.90;96.80;;;;;;5049022;28;20537;-67
2022/12/24 09:57:32;;;;;;;14.48;5.10;;;10.90;97.10;;;;;;5053404;28;20431;-67
2022/12/24 09:59:58;;;;;;;14.57;5.07;;;11.00;96.80;;;;;;5052230;28;20417;-67
2022/12/24 10:02:27;;;;;;;14.00;4.68;;;11.10;96.80;;;;;;5048111;28;20973;-66
2022/12/24 10:04:55;;;;;;;17.45;5.32;;;11.10;96.50;;;;;;5039711;28;20796;-67
2022/12/24 10:07:33;;;;;;;16.92;5.10;;;11.20;95.70;;;;;;5045865;28;20433;-67
2022/12/24 10:10:10;;;;;;;15.40;5.60;;;11.20;95.80;;;;;;5032658;28;20924;-66
2022/12/24 10:12:44;;;;;;;13.73;4.90;;;11.20;95.70;;;;;;5048971;28;20424;-66
2022/12/24 10:15:20;;;;;;;14.80;4.57;;;11.20;96.00;;;;;;5049217;28;20789;-66
2022/12/24 10:18:03;;;;;;;14.32;5.20;;;11.20;96.50;;;;;;5046894;28;20410;-68
2022/12/24 10:20:42;;;;;;;22.88;5.75;;;11.00;98.10;;;;;;5036436;28;20416;-67
2022/12/24 10:23:16;;;;;;;19.37;6.03;;;10.80;99.00;;;;;;5038753;28;20488;-67
2022/12/24 10:25:49;;;;;;;14.60;5.10;;;10.70;99.90;;;;;;5047114;28;20425;-67
2022/12/24 10:28:19;;;;;;;13.30;5.10;;;10.60;99.90;;;;;;5049045;28;20516;-67
2022/12/24 10:30:49;;;;;;;18.77;6.28;;;10.60;99.90;;;;;;5049414;28;20436;-66
2022/12/24 10:33:20;;;;;;;19.55;5.88;;;10.60;99.90;;;;;;5037829;28;20442;-67
2022/12/24 10:35:52;;;;;;;21.33;6.20;;;10.60;99.90;;;;;;5048877;28;20413;-69
2022/12/24 10:38:19;;;;;;;19.10;6.30;;;10.60;99.90;;;;;;5047292;28;20433;-69
2022/12/24 10:40:48;;;;;;;18.23;6.65;;;10.60;99.90;;;;;;5048638;28;20420;-69
2022/12/24 10:43:17;;;;;;;17.55;6.00;;;10.70;99.90;;;;;;5043266;28;20505;-69
2022/12/24 10:45:47;;;;;;;16.65;5.82;;;10.70;99.90;;;;;;5041080;28;21012;-68
2022/12/24 10:48:21;;;;;;;16.80;5.97;;;10.80;99.90;;;;;;5037044;28;20827;-67
2022/12/24 10:50:54;;;;;;;17.85;6.50;;;10.90;99.90;;;;;;5047934;28;20490;-67
2022/12/24 10:53:28;;;;;;;14.70;5.60;;;10.80;99.30;;;;;;5041071;28;20913;-67
2022/12/24 10:56:03;;;;;;;17.10;5.93;;;10.80;99.70;;;;;;5032033;28;20421;-68
2022/12/24 10:58:31;;;;;;;18.50;6.50;;;10.80;99.00;;;;;;5048877;28;20433;-67
2022/12/24 11:00:58;;;;;;;15.00;6.15;;;10.90;99.50;;;;;;5048229;28;20428;-66
2022/12/24 11:03:30;;;;;;;17.30;6.10;;;10.90;98.60;;;;;;5048196;28;20413;-68
2022/12/24 11:06:03;;;;;;;17.20;6.30;;;11.00;98.40;;;;;;5035935;28;20424;-68
2022/12/24 11:08:30;;;;;;;20.35;6.40;;;11.00;98.20;;;;;;5037366;28;20944;-68
2022/12/24 11:10:59;;;;;;;15.25;5.40;;;11.00;97.80;;;;;;5040254;28;20424;-68
2022/12/24 11:13:27;;;;;;;15.07;5.03;;;11.00;97.80;;;;;;5048408;28;20911;-67
2022/12/24 11:16:02;;;;;;;17.08;5.72;;;11.00;97.50;;;;;;5048510;28;20424;-68
2022/12/24 11:18:32;;;;;;;16.10;6.30;;;11.10;97.40;;;;;;5048204;28;20409;-67
2022/12/24 11:21:00;;;;;;;14.77;5.60;;;11.30;97.60;;;;;;5049738;28;20819;-67
2022/12/24 11:23:28;;;;;;;13.10;5.18;;;11.50;95.90;;;;;;5041151;28;20424;-66
2022/12/24 11:25:56;;;;;;;18.08;5.00;;;11.50;95.30;;;;;;5047338;28;20413;-68
2022/12/24 11:28:26;;;;;;;14.13;5.47;;;11.50;95.40;;;;;;5048354;28;20418;-67
2022/12/24 11:30:58;;;;;;;16.02;5.65;;;11.60;95.50;;;;;;5048628;28;20519;-68
2022/12/24 11:33:25;;;;;;;16.20;6.50;;;11.60;95.80;;;;;;5047597;28;20413;-68
2022/12/24 11:36:00;;;;;;;13.00;5.20;;;11.80;95.90;;;;;;5054048;28;20517;-68
2022/12/24 11:38:27;;;;;;;14.05;5.18;;;12.00;94.60;;;;;;5049979;28;20490;-68
2022/12/24 11:41:01;;;;;;;19.25;6.13;;;12.10;93.60;;;;;;5045070;28;20409;-68
2022/12/24 11:43:45;;;;;;;14.18;5.60;;;12.20;93.10;;;;;;5047399;28;20409;-68
2022/12/24 11:46:15;;;;;;;14.23;4.93;;;12.30;92.10;;;;;;5048268;28;20927;-67
2022/12/24 11:48:42;;;;;;;13.85;5.00;;;12.30;92.10;;;;;;5048488;28;20882;-66
2022/12/24 11:51:21;;;;;;;14.70;5.40;;;12.40;91.90;;;;;;5043315;28;20457;-66
2022/12/24 11:53:51;;;;;;;14.97;4.80;;;12.40;92.20;;;;;;5032167;28;20431;-67
2022/12/24 11:56:28;;;;;;;15.27;5.10;;;12.70;92.10;;;;;;5048165;28;20420;-67
2022/12/24 11:58:59;;;;;;;13.02;4.60;;;13.00;91.30;;;;;;5047522;28;20428;-67
2022/12/24 12:01:34;;;;;;;14.85;5.15;;;13.00;90.10;;;;;;5047530;28;20416;-67
2022/12/24 12:04:03;;;;;;;13.70;4.97;;;12.80;90.00;;;;;;5047346;28;20497;-67
2022/12/24 12:06:36;;;;;;;13.35;5.00;;;12.50;90.60;;;;;;5045589;28;20432;-67
2022/12/24 12:09:07;;;;;;;14.68;5.82;;;12.40;91.40;;;;;;5044265;28;20924;-67
2022/12/24 12:11:35;;;;;;;14.95;5.40;;;12.30;91.50;;;;;;5050494;28;20497;-67
2022/12/24 12:14:03;;;;;;;15.38;5.20;;;12.30;91.60;;;;;;5042191;28;20439;-67
2022/12/24 12:19:22;;;;;;;14.45;5.18;;;12.30;91.80;;;;;;5042276;28;20422;-66
2022/12/24 12:21:52;;;;;;;14.90;5.13;;;12.30;91.40;;;;;;5038393;28;21202;-67
2022/12/24 12:24:25;;;;;;;14.73;5.65;;;12.40;91.70;;;;;;5046764;28;20440;-68
2022/12/24 12:27:01;;;;;;;14.27;4.80;;;12.50;90.90;;;;;;5046345;28;20459;-68
2022/12/24 12:29:32;;;;;;;14.57;5.55;;;12.60;91.30;;;;;;5047448;28;20764;-68
2022/12/24 12:32:06;;;;;;;11.95;4.75;;;12.60;90.60;;;;;;5034687;28;20413;-68
2022/12/24 12:34:38;;;;;;;12.70;5.70;;;12.60;90.70;;;;;;5046825;28;20436;-67
2022/12/24 12:37:11;;;;;;;14.77;5.32;;;12.70;90.50;;;;;;5043205;28;20429;-67
2022/12/24 12:39:38;;;;;;;15.05;5.38;;;12.70;90.30;;;;;;5043424;28;21147;-69
2022/12/24 12:42:16;;;;;;;14.35;5.05;;;12.70;90.00;;;;;;5047017;28;20414;-67
2022/12/24 12:45:10;;;;;;;11.50;4.80;;;12.70;90.40;;;;;;5046966;28;20866;-68
2022/12/24 12:47:55;;;;;;;15.07;4.72;;;12.70;90.70;;;;;;5046874;28;20425;-68
2022/12/24 12:50:28;;;;;;;12.80;4.68;;;12.80;90.50;;;;;;5046301;28;20417;-68
2022/12/24 12:53:12;;;;;;;15.98;5.07;;;12.90;90.30;;;;;;5044508;28;20437;-67
2022/12/24 12:55:46;;;;;;;12.93;5.20;;;13.70;90.50;;;;;;5046676;28;20436;-67
2022/12/24 12:58:18;;;;;;;11.00;4.93;;;15.20;82.00;;;;;;5047518;28;20890;-67
2022/12/24 13:00:49;;;;;;;12.30;4.25;;;15.50;76.10;;;;;;5050745;28;20420;-66
2022/12/24 13:03:53;;;;;;;14.00;5.45;;;15.10;76.20;;;;;;5060081;28;20421;-66